Time;durP1;ratioP1;P1;durP2;ratioP2;P2;SDS_P1;SDS_P2;PMS_P1;PMS_P2;Temp;Humidity;BMP_temperature;BMP_pressure;BME280_temperature;BME280_humidity;BME280_pressure;Samples;Min_cycle;Max_cycle;Signal;HPM_P1;HPM_P2
2022/03/04 00:03:56;;;;;;;22.35;13.90;;;;;;;;;;10619853;27;20382;-56
2022/03/04 00:08:56;;;;;;;20.00;13.45;;;;;;;;;;10600841;27;20106;-56
2022/03/04 00:13:57;;;;;;;18.63;13.33;;;;;;;;;;10619694;27;20027;-55
2022/03/04 00:19:07;;;;;;;20.27;13.32;;;;;;;;;;10619606;27;20439;-55
2022/03/04 00:24:08;;;;;;;17.55;12.85;;;;;;;;;;10619259;27;20409;-55
2022/03/04 00:29:09;;;;;;;21.55;13.20;;;;;;;;;;10618672;27;20019;-59
2022/03/04 00:34:11;;;;;;;19.40;13.32;;;;;;;;;;10614924;27;20030;-54
2022/03/04 00:39:12;;;;;;;19.35;13.05;;;;;;;;;;10618609;27;20414;-58
2022/03/04 00:44:13;;;;;;;19.23;12.77;;;;;;;;;;10618873;27;20110;-55
2022/03/04 00:49:13;;;;;;;17.35;11.77;;;;;;;;;;10618871;27;20110;-57
2022/03/04 00:54:14;;;;;;;17.37;12.03;;;;;;;;;;10618457;27;20019;-54
2022/03/04 00:59:14;;;;;;;19.17;12.00;;;;;;;;;;10617276;27;20545;-55
2022/03/04 01:04:15;;;;;;;20.48;13.00;;;;;;;;;;10617965;27;20966;-56
2022/03/04 01:09:15;;;;;;;17.87;12.23;;;;;;;;;;10617816;27;20115;-57
2022/03/04 01:14:15;;;;;;;18.35;11.57;;;;;;;;;;10617731;27;20431;-57
2022/03/04 01:19:16;;;;;;;15.67;10.77;;;;;;;;;;10617585;27;20051;-56
2022/03/04 01:24:16;;;;;;;15.45;11.45;;;;;;;;;;10617565;27;20489;-55
2022/03/04 01:29:17;;;;;;;15.15;11.18;;;;;;;;;;10617269;27;20079;-55
2022/03/04 01:34:17;;;;;;;15.50;11.20;;;;;;;;;;10614271;28;20106;-54
2022/03/04 01:39:17;;;;;;;15.87;11.27;;;;;;;;;;10613728;27;20481;-54
2022/03/04 01:44:18;;;;;;;15.00;11.17;;;;;;;;;;10617055;28;20070;-54
2022/03/04 01:49:18;;;;;;;14.07;10.27;;;;;;;;;;10616970;27;20015;-52
2022/03/04 01:54:18;;;;;;;14.30;9.80;;;;;;;;;;10598658;28;21000;-53
2022/03/04 01:59:19;;;;;;;14.30;10.13;;;;;;;;;;10622669;27;20720;-56
2022/03/04 02:04:20;;;;;;;16.23;10.25;;;;;;;;;;10625578;27;20459;-54
2022/03/04 02:09:21;;;;;;;14.00;10.52;;;;;;;;;;10625381;27;20027;-54
2022/03/04 02:14:21;;;;;;;16.63;9.63;;;;;;;;;;10625340;27;20448;-57
2022/03/04 02:19:23;;;;;;;16.40;9.82;;;;;;;;;;10624570;27;20096;-56
2022/03/04 02:24:25;;;;;;;13.75;10.40;;;;;;;;;;10624223;27;20681;-56
2022/03/04 02:29:26;;;;;;;14.38;10.60;;;;;;;;;;10624005;27;20104;-59
2022/03/04 02:34:26;;;;;;;14.05;9.82;;;;;;;;;;10624030;27;20467;-56
2022/03/04 02:39:27;;;;;;;14.27;9.87;;;;;;;;;;10619783;27;20047;-57
2022/03/04 02:44:27;;;;;;;13.20;9.50;;;;;;;;;;10620234;27;20989;-53
2022/03/04 02:49:27;;;;;;;15.70;8.77;;;;;;;;;;10623274;27;20254;-54
2022/03/04 02:54:28;;;;;;;14.10;8.90;;;;;;;;;;10623146;27;20031;-54
2022/03/04 02:59:28;;;;;;;14.33;9.90;;;;;;;;;;10622716;27;20490;-58
2022/03/04 03:04:29;;;;;;;11.33;8.97;;;;;;;;;;10622743;27;20428;-60
2022/03/04 03:09:29;;;;;;;17.90;9.30;;;;;;;;;;10622032;27;20791;-58
2022/03/04 03:14:29;;;;;;;13.60;8.73;;;;;;;;;;10622014;27;20522;-57
2022/03/04 03:19:30;;;;;;;11.03;8.47;;;;;;;;;;10621943;27;20434;-56
2022/03/04 03:24:30;;;;;;;11.40;8.77;;;;;;;;;;10622046;27;20056;-56
2022/03/04 03:29:30;;;;;;;12.52;8.18;;;;;;;;;;10621535;27;20023;-58
2022/03/04 03:34:31;;;;;;;12.05;8.70;;;;;;;;;;10622047;27;20493;-59
2022/03/04 03:39:31;;;;;;;14.20;8.63;;;;;;;;;;10620894;27;20508;-59
2022/03/04 03:44:32;;;;;;;11.45;8.32;;;;;;;;;;10617643;27;20424;-53
2022/03/04 03:49:32;;;;;;;11.35;7.80;;;;;;;;;;10617349;27;20072;-54
2022/03/04 03:54:33;;;;;;;11.27;8.17;;;;;;;;;;10621341;27;20023;-54
2022/03/04 03:59:33;;;;;;;12.97;8.70;;;;;;;;;;10620362;27;20435;-58
2022/03/04 04:04:36;;;;;;;11.88;7.60;;;;;;;;;;10620268;27;20806;-55
2022/03/04 04:09:36;;;;;;;10.88;7.80;;;;;;;;;;10620622;27;20098;-58
2022/03/04 04:14:37;;;;;;;9.07;7.78;;;;;;;;;;10619936;27;20105;-57
2022/03/04 04:19:37;;;;;;;11.38;7.22;;;;;;;;;;10618929;27;20019;-55
2022/03/04 04:24:38;;;;;;;9.10;7.40;;;;;;;;;;10620042;27;20478;-55
2022/03/04 04:29:38;;;;;;;11.33;7.90;;;;;;;;;;10619137;27;20435;-57
2022/03/04 04:34:38;;;;;;;11.95;7.72;;;;;;;;;;10619675;27;20027;-58
2022/03/04 04:39:39;;;;;;;7.40;6.60;;;;;;;;;;10618664;27;20039;-55
2022/03/04 04:44:39;;;;;;;11.23;7.83;;;;;;;;;;10618651;27;20420;-58
2022/03/04 04:49:40;;;;;;;9.67;7.80;;;;;;;;;;10615320;27;20155;-58
2022/03/04 04:54:40;;;;;;;9.38;8.00;;;;;;;;;;10615263;27;20050;-53
2022/03/04 04:59:41;;;;;;;9.93;7.75;;;;;;;;;;10617965;27;20042;-53
2022/03/04 05:04:41;;;;;;;10.03;7.67;;;;;;;;;;10618154;27;20285;-52
2022/03/04 05:09:41;;;;;;;10.13;7.10;;;;;;;;;;10617931;27;20439;-54
2022/03/04 05:14:42;;;;;;;10.27;7.63;;;;;;;;;;10618264;27;20027;-58
2022/03/04 05:19:42;;;;;;;8.70;7.25;;;;;;;;;;10617616;27;20062;-58
2022/03/04 05:24:43;;;;;;;9.40;7.83;;;;;;;;;;10617505;27;20482;-55
2022/03/04 05:29:44;;;;;;;11.27;7.38;;;;;;;;;;10617803;27;20454;-54
2022/03/04 05:34:44;;;;;;;8.48;6.95;;;;;;;;;;10624775;27;20023;-57
2022/03/04 05:39:44;;;;;;;10.70;7.77;;;;;;;;;;10625824;27;20039;-57
2022/03/04 05:44:45;;;;;;;10.53;7.50;;;;;;;;;;10625937;27;20442;-55
2022/03/04 05:49:45;;;;;;;9.73;7.25;;;;;;;;;;10625789;27;20258;-55
2022/03/04 05:54:46;;;;;;;9.30;7.07;;;;;;;;;;10621935;27;20025;-53
2022/03/04 05:59:46;;;;;;;9.27;7.07;;;;;;;;;;10625647;27;20824;-55
2022/03/04 06:04:46;;;;;;;9.77;6.77;;;;;;;;;;10621761;27;20497;-54
2022/03/04 06:09:47;;;;;;;9.17;7.07;;;;;;;;;;10624923;27;20027;-55
2022/03/04 06:14:47;;;;;;;24.80;7.67;;;;;;;;;;10624684;27;20473;-55
2022/03/04 06:19:47;;;;;;;8.77;6.97;;;;;;;;;;10624160;27;20076;-55
2022/03/04 06:24:48;;;;;;;10.55;6.63;;;;;;;;;;10624276;27;20094;-59
2022/03/04 06:29:49;;;;;;;12.05;7.03;;;;;;;;;;10624223;27;20057;-60
2022/03/04 06:34:49;;;;;;;8.90;6.85;;;;;;;;;;10624297;27;20023;-61
2022/03/04 06:39:50;;;;;;;14.88;7.72;;;;;;;;;;10624053;27;20035;-60
2022/03/04 06:44:50;;;;;;;11.37;7.47;;;;;;;;;;10623707;27;20024;-60
2022/03/04 06:49:51;;;;;;;16.13;8.20;;;;;;;;;;10623669;27;20439;-60
2022/03/04 06:54:51;;;;;;;11.23;8.50;;;;;;;;;;10623138;27;20031;-60
2022/03/04 06:59:51;;;;;;;9.73;7.93;;;;;;;;;;10622702;27;20104;-60
2022/03/04 07:04:52;;;;;;;12.83;8.63;;;;;;;;;;10619602;27;20439;-61
2022/03/04 07:09:52;;;;;;;15.07;8.47;;;;;;;;;;10618716;27;20435;-61
2022/03/04 07:14:53;;;;;;;13.80;8.23;;;;;;;;;;10621739;27;20019;-60
2022/03/04 07:19:53;;;;;;;25.33;9.10;;;;;;;;;;10621854;27;20052;-62
2022/03/04 07:24:54;;;;;;;15.30;8.07;;;;;;;;;;10621377;27;20167;-62
2022/03/04 07:29:54;;;;;;;16.60;9.13;;;;;;;;;;10621591;27;20451;-62
2022/03/04 07:34:54;;;;;;;19.90;8.63;;;;;;;;;;10620269;27;20474;-62
2022/03/04 07:39:55;;;;;;;16.90;8.97;;;;;;;;;;10620659;27;20596;-62
2022/03/04 07:44:55;;;;;;;16.10;8.75;;;;;;;;;;10621108;27;20424;-62
2022/03/04 07:49:57;;;;;;;12.70;8.18;;;;;;;;;;10602481;27;20049;-62
2022/03/04 07:55:00;;;;;;;12.20;7.65;;;;;;;;;;10619741;27;20390;-61
2022/03/04 08:00:01;;;;;;;20.60;8.75;;;;;;;;;;10620313;27;20022;-62
2022/03/04 08:05:01;;;;;;;15.45;8.40;;;;;;;;;;10619973;27;20106;-61
2022/03/04 08:10:04;;;;;;;14.07;7.75;;;;;;;;;;10616918;27;20035;-60
2022/03/04 08:15:05;;;;;;;15.90;7.55;;;;;;;;;;10619866;27;20042;-61
2022/03/04 08:20:07;;;;;;;10.80;7.32;;;;;;;;;;10615802;27;20027;-60
2022/03/04 08:25:07;;;;;;;16.48;7.57;;;;;;;;;;10617909;27;20026;-60
2022/03/04 08:30:10;;;;;;;11.82;7.38;;;;;;;;;;10600074;27;20500;-60
2022/03/04 08:35:10;;;;;;;13.85;7.50;;;;;;;;;;10619003;27;20027;-61
2022/03/04 08:40:11;;;;;;;10.20;7.15;;;;;;;;;;10618144;27;20039;-60
2022/03/04 08:45:13;;;;;;;9.23;6.50;;;;;;;;;;10618150;27;20466;-61
2022/03/04 08:50:15;;;;;;;10.77;7.05;;;;;;;;;;10618184;27;20023;-59
2022/03/04 08:55:17;;;;;;;9.68;6.97;;;;;;;;;;10618232;27;20047;-59
2022/03/04 09:00:17;;;;;;;10.98;6.88;;;;;;;;;;10617646;27;20102;-59
2022/03/04 09:05:17;;;;;;;13.13;6.72;;;;;;;;;;10618328;27;20031;-59
2022/03/04 09:10:18;;;;;;;14.37;6.50;;;;;;;;;;10617417;27;20023;-62
2022/03/04 09:15:18;;;;;;;9.57;7.10;;;;;;;;;;10617756;27;20110;-62
2022/03/04 09:20:19;;;;;;;9.05;6.68;;;;;;;;;;10615060;27;20084;-62
2022/03/04 09:25:20;;;;;;;10.75;6.88;;;;;;;;;;10618393;27;20031;-59
2022/03/04 09:30:20;;;;;;;12.80;6.15;;;;;;;;;;10613545;27;20474;-60
2022/03/04 09:35:21;;;;;;;8.10;6.30;;;;;;;;;;10615512;28;20441;-59
2022/03/04 09:40:24;;;;;;;12.50;6.18;;;;;;;;;;10614534;27;20110;-59
2022/03/04 09:45:25;;;;;;;9.40;6.07;;;;;;;;;;10598323;28;20031;-61
2022/03/04 09:50:26;;;;;;;9.02;5.85;;;;;;;;;;10616240;27;20088;-62
2022/03/04 09:55:27;;;;;;;12.27;6.13;;;;;;;;;;10615408;28;20068;-60
2022/03/04 10:00:27;;;;;;;10.77;6.50;;;;;;;;;;10612898;27;20080;-61
2022/03/04 10:05:28;;;;;;;9.52;5.93;;;;;;;;;;10614904;28;20530;-60
2022/03/04 10:10:28;;;;;;;10.38;6.47;;;;;;;;;;10616742;27;20453;-62
2022/03/04 10:15:28;;;;;;;7.60;6.32;;;;;;;;;;10617186;28;20035;-60
2022/03/04 10:20:33;;;;;;;8.90;6.00;;;;;;;;;;10622533;27;20110;-60
2022/03/04 10:25:33;;;;;;;9.55;6.25;;;;;;;;;;10624692;27;20024;-61
2022/03/04 10:30:36;;;;;;;10.17;5.67;;;;;;;;;;10615987;27;20042;-60
2022/03/04 10:35:38;;;;;;;7.45;5.45;;;;;;;;;;10623045;27;20427;-59
2022/03/04 10:40:48;;;;;;;8.75;5.82;;;;;;;;;;10623468;27;20051;-60
2022/03/04 10:46:05;;;;;;;11.10;5.97;;;;;;;;;;10623031;27;20023;-60
2022/03/04 10:51:05;;;;;;;9.13;5.95;;;;;;;;;;10622376;27;20035;-60
2022/03/04 10:56:07;;;;;;;8.67;5.73;;;;;;;;;;10619748;27;20023;-59
2022/03/04 11:01:10;;;;;;;7.75;5.75;;;;;;;;;;10619271;27;20019;-60
2022/03/04 11:06:12;;;;;;;10.07;5.50;;;;;;;;;;10621765;27;20382;-60
2022/03/04 11:11:13;;;;;;;8.73;5.63;;;;;;;;;;10622144;27;20030;-60
2022/03/04 11:16:13;;;;;;;8.02;5.35;;;;;;;;;;10622499;27;20027;-61
2022/03/04 11:21:14;;;;;;;6.43;5.03;;;;;;;;;;10621661;27;20083;-61
2022/03/04 11:26:17;;;;;;;11.73;5.82;;;;;;;;;;10622236;27;20031;-60
2022/03/04 11:31:23;;;;;;;9.00;5.50;;;;;;;;;;10617526;27;20084;-60
2022/03/04 11:36:29;;;;;;;9.40;5.45;;;;;;;;;;10618934;27;20019;-61
2022/03/04 11:41:53;;;;;;;8.48;5.03;;;;;;;;;;10621616;27;20065;-59
2022/03/04 11:47:13;;;;;;;6.85;4.78;;;;;;;;;;10610769;27;20072;-62
2022/03/04 11:52:24;;;;;;;9.50;4.65;;;;;;;;;;10620921;27;20019;-60
2022/03/04 11:57:35;;;;;;;7.47;4.93;;;;;;;;;;10620485;27;20401;-60
2022/03/04 12:02:46;;;;;;;5.80;4.10;;;;;;;;;;10620490;27;20031;-60
2022/03/04 12:07:48;;;;;;;11.30;4.68;;;;;;;;;;10619967;27;20023;-61
2022/03/04 12:13:02;;;;;;;16.52;4.82;;;;;;;;;;10620133;27;20023;-61
2022/03/04 12:18:13;;;;;;;18.00;5.20;;;;;;;;;;10601564;27;20034;-61
2022/03/04 12:23:19;;;;;;;11.02;4.40;;;;;;;;;;10620014;27;20052;-61
2022/03/04 12:28:26;;;;;;;6.97;4.28;;;;;;;;;;10619763;27;20457;-61
2022/03/04 12:33:31;;;;;;;9.13;4.55;;;;;;;;;;10616201;27;20023;-61
2022/03/04 12:38:39;;;;;;;10.35;4.40;;;;;;;;;;10615818;27;20036;-61
2022/03/04 12:43:40;;;;;;;12.25;4.80;;;;;;;;;;10618870;27;20031;-61
2022/03/04 12:48:41;;;;;;;8.25;4.40;;;;;;;;;;10618884;27;20035;-61
2022/03/04 12:53:42;;;;;;;6.95;4.45;;;;;;;;;;10600859;27;20031;-61
2022/03/04 12:58:44;;;;;;;8.20;3.63;;;;;;;;;;10617793;27;20482;-61
2022/03/04 13:03:54;;;;;;;8.65;4.57;;;;;;;;;;10613664;27;20059;-61
2022/03/04 13:09:05;;;;;;;8.25;4.60;;;;;;;;;;10614816;27;20027;-61
2022/03/04 13:14:07;;;;;;;6.25;4.88;;;;;;;;;;10615671;27;20110;-61
2022/03/04 13:19:10;;;;;;;7.05;4.20;;;;;;;;;;10616140;27;20420;-62
2022/03/04 13:24:14;;;;;;;6.72;4.63;;;;;;;;;;10617087;27;20089;-61
2022/03/04 13:29:15;;;;;;;6.38;4.40;;;;;;;;;;10617143;27;20250;-62
2022/03/04 13:34:15;;;;;;;6.38;4.72;;;;;;;;;;10615481;28;20261;-62
2022/03/04 13:39:30;;;;;;;9.45;4.88;;;;;;;;;;10612363;27;20039;-61
2022/03/04 13:44:31;;;;;;;10.18;4.30;;;;;;;;;;10613648;28;20091;-63
2022/03/04 13:49:48;;;;;;;8.93;4.43;;;;;;;;;;10616936;27;20091;-61
2022/03/04 13:54:49;;;;;;;11.35;5.28;;;;;;;;;;10621630;27;20023;-61
2022/03/04 13:59:50;;;;;;;7.80;4.45;;;;;;;;;;10625632;27;20035;-63
2022/03/04 14:04:57;;;;;;;11.27;4.75;;;;;;;;;;10624567;27;20518;-62
2022/03/04 14:09:57;;;;;;;7.85;4.70;;;;;;;;;;10624246;27;20420;-62
2022/03/04 14:14:58;;;;;;;13.40;4.53;;;;;;;;;;10624014;27;20068;-63
2022/03/04 14:19:59;;;;;;;7.55;4.20;;;;;;;;;;10624656;27;20023;-62
2022/03/04 14:24:59;;;;;;;9.30;4.43;;;;;;;;;;10624816;27;20015;-64
2022/03/04 14:30:00;;;;;;;9.90;4.03;;;;;;;;;;10625030;27;20537;-62
2022/03/04 14:35:00;;;;;;;6.47;3.90;;;;;;;;;;10624478;27;20200;-62
2022/03/04 14:40:02;;;;;;;9.00;4.03;;;;;;;;;;10623880;27;20456;-64
2022/03/04 14:45:03;;;;;;;8.05;4.00;;;;;;;;;;10620895;27;20494;-62
2022/03/04 14:50:05;;;;;;;7.53;4.20;;;;;;;;;;10620912;27;20023;-62
2022/03/04 14:55:07;;;;;;;8.02;4.43;;;;;;;;;;10623625;27;20036;-62
2022/03/04 15:00:12;;;;;;;5.80;3.70;;;;;;;;;;10623626;27;20110;-62
2022/03/04 15:05:17;;;;;;;8.13;4.70;;;;;;;;;;10622851;27;20455;-62
2022/03/04 15:10:18;;;;;;;7.72;4.35;;;;;;;;;;10622729;27;20102;-63
2022/03/04 15:15:19;;;;;;;8.70;4.40;;;;;;;;;;10622544;27;20482;-62
2022/03/04 15:20:19;;;;;;;10.90;4.40;;;;;;;;;;10622423;27;20027;-63
2022/03/04 15:25:20;;;;;;;117.78;9.10;;;;;;;;;;10622382;27;20030;-63
2022/03/04 15:30:20;;;;;;;55.13;6.57;;;;;;;;;;10622545;27;20042;-62
2022/03/04 15:35:22;;;;;;;32.20;5.10;;;;;;;;;;10622501;27;20035;-64
2022/03/04 15:40:23;;;;;;;21.80;5.30;;;;;;;;;;10621652;27;20463;-64
2022/03/04 15:45:23;;;;;;;32.58;5.93;;;;;;;;;;10621474;27;20499;-64
2022/03/04 15:50:25;;;;;;;26.45;5.03;;;;;;;;;;10617858;27;20065;-64
2022/03/04 15:55:26;;;;;;;29.58;6.65;;;;;;;;;;10617132;27;20023;-64
2022/03/04 16:00:26;;;;;;;18.85;5.32;;;;;;;;;;10620292;27;20015;-64
2022/03/04 16:05:27;;;;;;;18.33;4.80;;;;;;;;;;10620627;27;20047;-64
2022/03/04 16:10:29;;;;;;;22.40;5.05;;;;;;;;;;10620482;27;20057;-64
2022/03/04 16:15:29;;;;;;;21.05;5.20;;;;;;;;;;10619363;27;20027;-64
2022/03/04 16:20:30;;;;;;;14.33;4.87;;;;;;;;;;10620357;27;20595;-64
2022/03/04 16:25:31;;;;;;;24.97;5.40;;;;;;;;;;10619858;27;20140;-63
2022/03/04 16:30:31;;;;;;;15.13;4.75;;;;;;;;;;10620327;27;20118;-64
2022/03/04 16:35:31;;;;;;;16.57;5.50;;;;;;;;;;10619275;27;20031;-64
2022/03/04 16:40:32;;;;;;;16.95;5.85;;;;;;;;;;10619330;27;20487;-64
2022/03/04 16:45:32;;;;;;;10.20;5.30;;;;;;;;;;10618485;27;20512;-63
2022/03/04 16:50:33;;;;;;;14.67;5.10;;;;;;;;;;10617854;27;20459;-63
2022/03/04 16:55:33;;;;;;;11.93;4.25;;;;;;;;;;10611887;27;20023;-63
2022/03/04 17:00:34;;;;;;;13.88;4.97;;;;;;;;;;10618668;27;20046;-62
2022/03/04 17:05:34;;;;;;;9.80;4.43;;;;;;;;;;10617682;27;20088;-63
2022/03/04 17:10:34;;;;;;;14.83;4.57;;;;;;;;;;10617889;27;20431;-63
2022/03/04 17:15:35;;;;;;;14.45;4.68;;;;;;;;;;10617849;27;21029;-63
2022/03/04 17:20:38;;;;;;;9.82;4.32;;;;;;;;;;10617696;27;20031;-63
2022/03/04 17:25:39;;;;;;;10.77;4.45;;;;;;;;;;10617960;27;20105;-63
2022/03/04 17:30:40;;;;;;;7.05;4.25;;;;;;;;;;10617847;27;20434;-63
2022/03/04 17:35:40;;;;;;;9.45;4.05;;;;;;;;;;10617557;27;20079;-63
2022/03/04 17:40:41;;;;;;;12.52;4.82;;;;;;;;;;10617136;28;20068;-63
2022/03/04 17:45:41;;;;;;;5.77;3.93;;;;;;;;;;10617428;27;20462;-63
2022/03/04 17:50:41;;;;;;;7.13;4.22;;;;;;;;;;10617654;28;20523;-64
2022/03/04 17:55:42;;;;;;;12.02;4.50;;;;;;;;;;10613710;27;20106;-62
2022/03/04 18:00:42;;;;;;;13.90;4.32;;;;;;;;;;10616730;28;20059;-61
2022/03/04 18:05:43;;;;;;;15.93;5.03;;;;;;;;;;10612935;27;20019;-62
2022/03/04 18:10:43;;;;;;;17.37;6.00;;;;;;;;;;10616194;28;20918;-62
2022/03/04 18:15:44;;;;;;;19.73;5.53;;;;;;;;;;10615938;27;20463;-61
2022/03/04 18:20:44;;;;;;;16.88;4.95;;;;;;;;;;10617050;28;20023;-61
2022/03/04 18:25:45;;;;;;;12.82;4.65;;;;;;;;;;10617544;27;20031;-61
2022/03/04 18:30:45;;;;;;;11.13;5.05;;;;;;;;;;10616724;28;20538;-61
2022/03/04 18:35:45;;;;;;;12.47;4.73;;;;;;;;;;10616293;27;20035;-61
2022/03/04 18:40:46;;;;;;;8.80;4.33;;;;;;;;;;10620715;27;20554;-61
2022/03/04 18:45:49;;;;;;;12.23;5.00;;;;;;;;;;10624323;27;20027;-61
2022/03/04 18:50:50;;;;;;;10.07;4.47;;;;;;;;;;10623749;27;20492;-61
2022/03/04 18:55:50;;;;;;;12.73;5.05;;;;;;;;;;10623666;27;20031;-61
2022/03/04 19:00:51;;;;;;;10.05;4.72;;;;;;;;;;10623424;27;20088;-61
2022/03/04 19:05:51;;;;;;;9.05;4.50;;;;;;;;;;10619664;27;20030;-61
2022/03/04 19:10:52;;;;;;;11.50;4.90;;;;;;;;;;10619328;27;20102;-60
2022/03/04 19:15:52;;;;;;;11.95;4.93;;;;;;;;;;10622410;27;20969;-60
2022/03/04 19:20:53;;;;;;;6.53;3.85;;;;;;;;;;10622360;27;20037;-61
2022/03/04 19:25:53;;;;;;;8.83;5.27;;;;;;;;;;10621402;27;20388;-61
2022/03/04 19:30:53;;;;;;;13.80;5.35;;;;;;;;;;10622160;27;20115;-61
2022/03/04 19:35:55;;;;;;;11.93;4.93;;;;;;;;;;10620957;27;20129;-61
2022/03/04 19:40:56;;;;;;;7.35;4.45;;;;;;;;;;10621308;27;20486;-61
2022/03/04 19:45:57;;;;;;;10.57;5.13;;;;;;;;;;10621483;27;20035;-61
2022/03/04 19:50:58;;;;;;;9.02;5.50;;;;;;;;;;10620870;27;20436;-61
2022/03/04 19:55:59;;;;;;;13.20;5.03;;;;;;;;;;10620897;27;20022;-61
2022/03/04 20:00:59;;;;;;;17.42;5.68;;;;;;;;;;10620711;27;20360;-61
2022/03/04 20:06:00;;;;;;;9.53;5.20;;;;;;;;;;10620198;27;20023;-61
2022/03/04 20:11:00;;;;;;;8.10;4.70;;;;;;;;;;10617264;27;20448;-61
2022/03/04 20:16:02;;;;;;;9.43;5.05;;;;;;;;;;10617700;27;20431;-61
2022/03/04 20:21:03;;;;;;;10.18;4.70;;;;;;;;;;10620057;27;20379;-61
2022/03/04 20:26:03;;;;;;;12.45;5.40;;;;;;;;;;10619508;27;20026;-61
2022/03/04 20:31:04;;;;;;;20.50;5.45;;;;;;;;;;10619657;27;20481;-61
2022/03/04 20:36:08;;;;;;;9.88;5.53;;;;;;;;;;10601628;27;20274;-61
2022/03/04 20:41:08;;;;;;;8.77;5.10;;;;;;;;;;10619115;27;20385;-61
2022/03/04 20:46:09;;;;;;;8.83;5.53;;;;;;;;;;10619115;27;20644;-61
2022/03/04 20:51:10;;;;;;;10.27;5.38;;;;;;;;;;10618963;27;20427;-61
2022/03/04 20:56:10;;;;;;;11.15;5.90;;;;;;;;;;10618260;27;20356;-61
2022/03/04 21:01:11;;;;;;;11.60;5.00;;;;;;;;;;10618385;27;20414;-61
2022/03/04 21:06:11;;;;;;;6.88;4.97;;;;;;;;;;10618445;27;20108;-61
2022/03/04 21:11:12;;;;;;;11.93;5.18;;;;;;;;;;10618549;27;20019;-61
2022/03/04 21:16:12;;;;;;;6.63;4.75;;;;;;;;;;10611922;27;20542;-61
2022/03/04 21:21:15;;;;;;;8.38;4.80;;;;;;;;;;10617476;27;20027;-62
2022/03/04 21:26:15;;;;;;;6.85;5.00;;;;;;;;;;10617405;27;20027;-61
2022/03/04 21:31:16;;;;;;;12.48;5.72;;;;;;;;;;10618348;27;20493;-61
2022/03/04 21:36:17;;;;;;;6.75;5.10;;;;;;;;;;10618115;27;20019;-61
2022/03/04 21:41:17;;;;;;;7.55;5.30;;;;;;;;;;10617936;28;20043;-61
2022/03/04 21:46:18;;;;;;;9.20;5.13;;;;;;;;;;10617285;27;20031;-61
2022/03/04 21:51:18;;;;;;;9.07;5.50;;;;;;;;;;10617499;28;20823;-61
2022/03/04 21:56:19;;;;;;;9.50;5.25;;;;;;;;;;10617219;27;20034;-61
2022/03/04 22:01:20;;;;;;;7.93;5.10;;;;;;;;;;10617704;28;20450;-62
2022/03/04 22:06:20;;;;;;;11.07;5.07;;;;;;;;;;10617327;27;20411;-62
2022/03/04 22:11:22;;;;;;;27.50;6.05;;;;;;;;;;10617611;28;20106;-62
2022/03/04 22:16:23;;;;;;;15.20;6.05;;;;;;;;;;10618656;27;20593;-62
2022/03/04 22:21:23;;;;;;;16.63;5.70;;;;;;;;;;10606550;27;20027;-62
2022/03/04 22:26:24;;;;;;;16.55;5.75;;;;;;;;;;10622388;27;20114;-62
2022/03/04 22:31:24;;;;;;;11.27;5.37;;;;;;;;;;10624389;27;20054;-62
2022/03/04 22:36:24;;;;;;;15.53;5.23;;;;;;;;;;10624079;27;20519;-62
2022/03/04 22:41:25;;;;;;;15.53;5.40;;;;;;;;;;10624603;27;20431;-62
2022/03/04 22:46:25;;;;;;;13.87;5.27;;;;;;;;;;10623810;27;20431;-62
2022/03/04 22:51:26;;;;;;;9.70;4.90;;;;;;;;;;10624445;27;20079;-62
2022/03/04 22:56:27;;;;;;;11.27;5.63;;;;;;;;;;10624412;27;20067;-62
2022/03/04 23:01:27;;;;;;;15.05;5.13;;;;;;;;;;10623300;27;20475;-62
2022/03/04 23:11:47;;;;;;;10.98;4.32;;;;;;;;;;10623020;27;20019;-62
2022/03/04 23:16:48;;;;;;;8.35;4.68;;;;;;;;;;10623227;27;20023;-62
2022/03/04 23:21:51;;;;;;;10.82;4.88;;;;;;;;;;10622268;27;20045;-62
2022/03/04 23:26:52;;;;;;;14.07;4.82;;;;;;;;;;10618420;27;20378;-62
2022/03/04 23:31:53;;;;;;;10.45;4.68;;;;;;;;;;10623196;27;20029;-62
2022/03/04 23:36:53;;;;;;;8.37;4.67;;;;;;;;;;10599684;27;20099;-62
2022/03/04 23:41:53;;;;;;;11.20;5.07;;;;;;;;;;10621602;27;20030;-62
2022/03/04 23:46:54;;;;;;;6.33;4.67;;;;;;;;;;10621154;27;20105;-62
2022/03/04 23:51:55;;;;;;;13.75;5.13;;;;;;;;;;10621359;27;20034;-62
2022/03/04 23:56:56;;;;;;;11.05;5.35;;;;;;;;;;10620982;27;20019;-62
